Time;durP1;ratioP1;P1;durP2;ratioP2;P2;SDS_P1;SDS_P2;PMS_P1;PMS_P2;Temp;Humidity;BMP_temperature;BMP_pressure;BME280_temperature;BME280_humidity;BME280_pressure;Samples;Min_cycle;Max_cycle;Signal;HPM_P1;HPM_P2
2022/11/29 13:55:49;;;;;;;8.95;3.00;;;;;;;0.75;100.00;102402.28;1805602;77;22783;-88
2022/11/29 13:58:29;;;;;;;20.20;3.50;;;;;;;0.79;100.00;102410.77;1728505;81;21017;-87
2022/11/29 14:01:13;;;;;;;11.60;3.33;;;;;;;0.82;100.00;102409.14;1728767;81;21687;-87
2022/11/29 14:04:01;;;;;;;11.30;3.45;;;;;;;0.78;100.00;102412.59;1728302;81;21073;-88
2022/11/29 14:06:36;;;;;;;17.60;5.10;;;;;;;0.79;100.00;102414.75;1728548;81;21682;-89
2022/11/29 14:09:17;;;;;;;16.48;5.17;;;;;;;0.75;100.00;102419.53;1728887;81;21644;-88
2022/11/29 14:12:29;;;;;;;20.25;5.03;;;;;;;0.78;100.00;102429.02;1725002;81;21081;-87
2022/11/29 14:15:16;;;;;;;11.78;3.08;;;;;;;0.72;100.00;102438.41;1728148;81;21085;-86
2022/11/29 14:17:56;;;;;;;18.65;4.47;;;;;;;0.73;100.00;102432.59;1696521;83;21632;-87
2022/11/29 14:20:28;;;;;;;14.93;3.52;;;;;;;0.66;100.00;102425.24;1695615;84;21432;-85
2022/11/29 14:23:13;;;;;;;10.23;3.65;;;;;;;0.75;100.00;102430.64;1670179;85;20977;-86
2022/11/29 14:25:44;;;;;;;11.38;3.30;;;;;;;0.68;100.00;102434.39;1696496;84;21172;-86
2022/11/29 14:28:18;;;;;;;13.98;3.10;;;;;;;0.70;100.00;102432.91;1696356;84;21350;-87
2022/11/29 14:30:57;;;;;;;23.50;3.52;;;;;;;0.60;100.00;102432.97;1699808;84;21596;-87
2022/11/29 14:33:54;;;;;;;11.40;3.67;;;;;;;0.61;100.00;102432.80;1699771;84;21018;-87
2022/11/29 14:36:40;;;;;;;28.65;3.42;;;;;;;0.67;100.00;102443.31;1670442;84;21097;-88
2022/11/29 14:39:47;;;;;;;16.85;3.05;;;;;;;0.63;100.00;102447.26;1674736;84;21062;-88
2022/11/29 14:42:20;;;;;;;28.92;3.45;;;;;;;0.60;100.00;102452.36;1672664;84;21091;-88
2022/11/29 14:44:53;;;;;;;17.57;2.72;;;;;;;0.60;100.00;102450.20;1675482;84;21507;-88
2022/11/29 14:47:37;;;;;;;;;;;;;;;0.54;100.00;102453.45;1678056;84;21038;-88
2022/11/29 14:50:07;;;;;;;;;;;;;;;0.58;100.00;102445.03;1677516;84;20147;-89
2022/11/29 14:52:40;;;;;;;16.85;3.10;;;;;;;0.57;100.00;102443.87;1675419;84;20158;-86
2022/11/29 14:55:17;;;;;;;21.33;4.37;;;;;;;0.61;100.00;102449.22;1697001;83;21101;-86
2022/11/29 14:57:57;;;;;;;12.60;3.20;;;;;;;0.66;100.00;102446.96;1662869;84;21086;-87
2022/11/29 15:00:27;;;;;;;12.65;4.00;;;;;;;0.54;100.00;102454.78;1659470;84;21077;-87
2022/11/29 15:03:11;;;;;;;11.48;3.35;;;;;;;0.56;100.00;102448.35;1662660;84;21133;-87
2022/11/29 15:05:52;;;;;;;6.83;2.70;;;;;;;0.54;100.00;102453.45;1578553;90;21114;-86
2022/11/29 15:08:40;;;;;;;21.93;6.33;;;;;;;0.59;100.00;102444.54;1573340;90;21189;-86
2022/11/29 15:11:51;;;;;;;41.48;8.00;;;;;;;0.53;100.00;102446.00;1573297;90;21075;-87
2022/11/29 15:14:42;;;;;;;34.58;7.92;;;;;;;0.54;100.00;102437.05;1568818;90;21124;-88
2022/11/29 15:17:43;;;;;;;32.83;6.17;;;;;;;0.50;100.00;102448.08;1567965;90;21060;-87
2022/11/29 15:20:21;;;;;;;22.62;5.55;;;;;;;0.47;100.00;102443.91;1546149;92;21620;-86
2022/11/29 15:22:58;;;;;;;14.20;3.55;;;;;;;0.54;100.00;102448.16;1500785;94;21700;-86
2022/11/29 15:25:29;;;;;;;19.57;5.12;;;;;;;0.50;100.00;102444.11;1501147;95;21200;-86
2022/11/29 15:28:02;;;;;;;11.30;2.52;;;;;;;0.51;100.00;102451.09;1501034;95;21078;-87
2022/11/29 15:30:37;;;;;;;12.65;2.87;;;;;;;0.53;100.00;102450.44;1481900;96;21086;-86
2022/11/29 15:33:08;;;;;;;13.22;3.70;;;;;;;0.52;100.00;102451.44;1481810;96;21086;-86
2022/11/29 15:35:35;;;;;;;11.85;3.42;;;;;;;0.52;100.00;102450.11;1481806;96;21179;-87
2022/11/29 15:38:05;;;;;;;9.35;3.25;;;;;;;0.54;100.00;102451.63;1482026;96;21150;-86
2022/11/29 15:40:34;;;;;;;9.70;3.85;;;;;;;0.45;100.00;102450.70;1481080;95;21670;-85
2022/11/29 15:43:22;;;;;;;20.00;4.08;;;;;;;0.48;100.00;102446.09;1497292;94;21151;-86
2022/11/29 15:45:51;;;;;;;12.50;3.42;;;;;;;0.51;100.00;102444.47;1516943;93;21112;-85
2022/11/29 15:48:22;;;;;;;11.48;3.40;;;;;;;0.43;100.00;102442.54;1516733;93;21584;-85
2022/11/29 15:51:25;;;;;;;11.33;3.02;;;;;;;0.51;100.00;102447.13;1516667;93;21072;-85
2022/11/29 15:54:21;;;;;;;10.28;2.87;;;;;;;0.51;100.00;102448.45;1526987;90;21668;-87
2022/11/29 15:57:00;;;;;;;6.80;2.60;;;;;;;0.50;100.00;102448.94;1527871;93;21173;-86
2022/11/29 15:59:40;;;;;;;10.18;3.10;;;;;;;0.47;100.00;102449.20;1538523;92;21162;-85
2022/11/29 16:05:37;;;;;;;;;;;;;;;;;;;;;
2022/11/29 16:10:42;;;;;;;19.50;4.97;;;;;;;0.37;100.00;102458.55;1454179;98;21604;-88
2022/11/29 16:13:41;;;;;;;11.35;3.92;;;;;;;0.38;100.00;102469.98;1454363;98;21073;-88
2022/11/29 16:16:16;;;;;;;11.08;4.25;;;;;;;0.30;100.00;102464.59;1454163;97;21233;-87
2022/11/29 16:18:46;;;;;;;19.02;4.12;;;;;;;0.29;100.00;102459.76;1454307;98;21169;-86
2022/11/29 16:21:29;;;;;;;14.85;3.90;;;;;;;0.17;100.00;102461.75;1454368;98;21580;-86
2022/11/29 16:23:57;;;;;;;15.15;4.55;;;;;;;0.23;100.00;102461.67;1454537;98;21875;-87
2022/11/29 16:26:33;;;;;;;23.05;5.85;;;;;;;0.21;100.00;102463.16;1452937;98;21097;-86
2022/11/29 16:29:00;;;;;;;16.25;4.70;;;;;;;0.27;100.00;102472.84;1452083;98;21189;-87
2022/11/29 16:31:37;;;;;;;11.83;4.10;;;;;;;0.24;100.00;102466.02;1452225;98;21192;-86
2022/11/29 16:34:11;;;;;;;10.18;3.40;;;;;;;0.23;100.00;102471.78;1491839;94;21124;-88
2022/11/29 16:36:37;;;;;;;15.75;3.87;;;;;;;0.18;100.00;102478.52;1483360;96;21711;-85
2022/11/29 16:39:23;;;;;;;15.20;4.22;;;;;;;0.18;100.00;102469.25;1492758;95;21169;-88
2022/11/29 16:42:22;;;;;;;15.93;3.90;;;;;;;0.16;100.00;102477.82;1493755;95;21871;-88
2022/11/29 16:45:01;;;;;;;12.30;3.95;;;;;;;0.08;100.00;102479.86;1505149;93;21091;-86
2022/11/29 23:09:00;;;;;;;17.27;4.90;;;;;;;-3.03;100.00;102485.38;1858152;77;22427;-86
2022/11/29 23:11:28;;;;;;;13.95;4.50;;;;;;;-3.05;100.00;102491.73;1789112;79;21109;-87
2022/11/29 23:13:55;;;;;;;15.48;4.60;;;;;;;-2.97;100.00;102497.23;1789656;80;21113;-86
2022/11/29 23:16:24;;;;;;;14.43;4.05;;;;;;;-2.91;100.00;102493.23;1789417;80;20991;-85
2022/11/29 23:18:52;;;;;;;16.48;3.90;;;;;;;-2.83;100.00;102479.78;1789615;80;21094;-85
2022/11/29 23:21:22;;;;;;;14.35;4.85;;;;;;;-2.77;100.00;102482.41;1789611;80;21007;-86
2022/11/29 23:23:49;;;;;;;12.37;4.00;;;;;;;-2.90;100.00;102482.58;1789520;80;21014;-86
2022/11/29 23:26:25;;;;;;;15.03;4.37;;;;;;;-2.82;100.00;102485.44;1789459;80;21304;-86
2022/11/29 23:28:53;;;;;;;13.45;3.98;;;;;;;-2.88;100.00;102481.12;1701555;84;21114;-86
2022/11/29 23:31:20;;;;;;;17.87;4.45;;;;;;;-2.84;100.00;102472.02;1701626;84;21490;-86
2022/11/29 23:33:47;;;;;;;16.57;4.37;;;;;;;-2.74;100.00;102475.56;1701412;84;21034;-86
2022/11/29 23:36:15;;;;;;;13.30;3.83;;;;;;;-2.86;100.00;102468.16;1719687;82;21568;-86
2022/11/29 23:38:41;;;;;;;11.75;4.45;;;;;;;-2.90;100.00;102476.47;1732481;81;21251;-86
2022/11/29 23:41:08;;;;;;;12.55;4.22;;;;;;;-2.81;100.00;102474.40;1732616;82;21072;-87
2022/11/29 23:43:37;;;;;;;16.77;3.98;;;;;;;-2.81;100.00;102479.67;1732507;82;21101;-86
2022/11/29 23:46:16;;;;;;;10.65;3.98;;;;;;;-2.78;100.00;102475.47;1732814;82;21085;-87
2022/11/29 23:48:43;;;;;;;13.75;4.20;;;;;;;-2.83;100.00;102473.19;1732537;82;21148;-86
2022/11/29 23:51:10;;;;;;;14.55;3.87;;;;;;;-2.75;100.00;102469.94;1732454;82;21088;-87
2022/11/29 23:53:36;;;;;;;15.18;3.95;;;;;;;-2.73;100.00;102458.78;1732235;82;21109;-86
2022/11/29 23:56:15;;;;;;;18.37;4.15;;;;;;;-2.78;100.00;102459.15;1732576;82;21053;-86
2022/11/29 23:58:43;;;;;;;14.93;3.98;;;;;;;-2.80;100.00;102462.38;1732441;82;21112;-87
